Time;durP1;ratioP1;P1;durP2;ratioP2;P2;SDS_P1;SDS_P2;PMS_P1;PMS_P2;Temp;Humidity;BMP_temperature;BMP_pressure;BME280_temperature;BME280_humidity;BME280_pressure;Samples;Min_cycle;Max_cycle;Signal;HPM_P1;HPM_P2
2022/07/17 00:02:12;;;;;;;5.18;2.65;;;;;;;16.33;49.66;96474.16;5038059;28;20193;-81
2022/07/17 00:04:37;;;;;;;3.22;2.30;;;;;;;16.27;50.30;96479.25;5035808;28;20193;-80
2022/07/17 00:07:02;;;;;;;3.78;2.83;;;;;;;16.17;50.22;96476.75;5037472;28;20685;-81
2022/07/17 00:09:28;;;;;;;3.15;2.17;;;;;;;16.11;50.26;96477.38;5037801;28;20178;-81
2022/07/17 00:11:53;;;;;;;5.80;3.13;;;;;;;16.03;50.77;96475.56;5038381;28;20202;-81
2022/07/17 00:14:18;;;;;;;2.72;2.50;;;;;;;15.93;51.24;96469.63;5037032;28;20196;-82
2022/07/17 00:16:44;;;;;;;2.53;2.28;;;;;;;15.93;51.18;96472.25;5037710;28;20372;-80
2022/07/17 00:19:09;;;;;;;4.80;2.70;;;;;;;15.85;51.90;96469.59;5037589;28;20177;-80
2022/07/17 00:21:34;;;;;;;4.38;2.45;;;;;;;15.84;51.60;96473.19;5037197;28;20227;-81
2022/07/17 00:23:59;;;;;;;3.22;2.50;;;;;;;15.74;51.73;96468.09;5036580;28;20185;-80
2022/07/17 00:26:25;;;;;;;4.93;2.70;;;;;;;15.72;52.09;96463.97;5017492;28;20241;-81
2022/07/17 00:28:50;;;;;;;3.10;2.80;;;;;;;15.66;51.88;96475.09;5017807;28;20265;-81
2022/07/17 00:31:16;;;;;;;3.03;2.72;;;;;;;15.67;52.00;96466.25;5017901;28;20696;-80
2022/07/17 00:33:41;;;;;;;3.17;2.88;;;;;;;15.61;52.24;96466.88;5017531;28;20265;-81
2022/07/17 00:36:07;;;;;;;4.05;2.83;;;;;;;15.61;51.99;96464.25;5017554;28;20175;-80
2022/07/17 00:38:32;;;;;;;2.47;2.25;;;;;;;15.55;52.21;96466.50;5017345;28;20190;-81
2022/07/17 00:41:00;;;;;;;3.20;2.60;;;;;;;15.52;52.27;96471.19;5017436;28;20568;-81
2022/07/17 00:43:26;;;;;;;3.42;2.45;;;;;;;15.46;52.28;96475.28;5035890;28;20179;-81
2022/07/17 00:45:56;;;;;;;3.05;2.75;;;;;;;15.42;52.55;96475.72;5017711;28;20206;-80
2022/07/17 00:48:22;;;;;;;4.53;2.55;;;;;;;15.40;52.48;96477.69;5015866;28;20167;-81
2022/07/17 00:50:47;;;;;;;2.83;2.50;;;;;;;15.37;52.92;96465.75;5017082;28;20231;-81
2022/07/17 00:53:12;;;;;;;2.63;2.42;;;;;;;15.34;53.07;96471.28;5017211;28;20167;-81
2022/07/17 00:55:39;;;;;;;4.50;2.78;;;;;;;15.35;53.27;96472.91;5017186;28;20186;-80
2022/07/17 00:58:06;;;;;;;3.35;2.55;;;;;;;15.30;53.24;96481.22;5017124;28;20289;-80
2022/07/17 01:00:31;;;;;;;5.00;2.60;;;;;;;15.28;53.36;96471.88;5017596;28;20174;-80
2022/07/17 01:02:57;;;;;;;3.10;2.70;;;;;;;15.24;53.34;96481.84;5000911;28;20202;-82
2022/07/17 01:05:22;;;;;;;4.35;2.70;;;;;;;15.17;53.54;96474.75;5016213;28;20202;-82
2022/07/17 01:07:48;;;;;;;2.78;2.58;;;;;;;15.15;53.42;96477.53;5016353;28;20182;-81
2022/07/17 01:10:16;;;;;;;2.58;2.38;;;;;;;15.07;53.64;96476.66;5000625;28;20201;-80
2022/07/17 01:12:41;;;;;;;3.38;2.75;;;;;;;15.00;53.85;96474.63;5016948;28;20210;-80
2022/07/17 01:15:08;;;;;;;3.80;2.90;;;;;;;14.98;54.13;96466.13;5016466;28;20171;-80
2022/07/17 01:17:34;;;;;;;2.78;2.60;;;;;;;14.90;54.48;96470.47;5016408;28;20175;-80
2022/07/17 01:20:02;;;;;;;4.03;2.50;;;;;;;14.95;54.33;96470.84;5022988;28;20178;-80
2022/07/17 01:22:27;;;;;;;2.55;2.35;;;;;;;14.87;54.36;96473.41;5016343;28;20202;-81
2022/07/17 01:24:52;;;;;;;3.05;2.30;;;;;;;14.85;54.53;96470.94;5016197;28;20182;-81
2022/07/17 01:27:18;;;;;;;2.70;2.50;;;;;;;14.82;54.90;96476.47;5016412;28;20589;-80
2022/07/17 01:29:43;;;;;;;3.63;3.30;;;;;;;14.78;55.38;96475.13;5016335;28;20226;-80
2022/07/17 01:32:08;;;;;;;3.88;2.92;;;;;;;14.70;55.78;96475.06;5016591;28;20210;-80
2022/07/17 01:34:33;;;;;;;5.00;2.97;;;;;;;14.66;55.71;96471.09;5016006;28;20175;-80
2022/07/17 01:36:59;;;;;;;2.70;2.50;;;;;;;14.64;55.46;96478.25;5034111;28;20214;-81
2022/07/17 01:42:08;;;;;;;8.73;3.00;;;;;;;14.61;55.71;96470.72;5018870;28;20256;-81
2022/07/17 01:44:34;;;;;;;3.47;2.67;;;;;;;14.61;55.61;96468.94;5015834;28;20262;-80
2022/07/17 01:46:59;;;;;;;3.83;2.83;;;;;;;14.53;56.10;96468.03;5015870;28;20260;-80
2022/07/17 01:49:25;;;;;;;2.88;2.50;;;;;;;14.55;55.60;96473.94;4999849;28;20229;-81
2022/07/17 01:51:50;;;;;;;4.13;2.90;;;;;;;14.50;56.10;96469.16;5015686;28;20203;-80
2022/07/17 01:54:15;;;;;;;2.88;2.67;;;;;;;14.48;56.06;96473.69;5015360;28;20206;-80
2022/07/17 01:56:41;;;;;;;3.70;2.63;;;;;;;14.49;55.99;96467.53;5015766;28;20166;-80
2022/07/17 01:59:06;;;;;;;2.97;2.60;;;;;;;14.54;55.43;96467.06;5033635;28;20202;-81
2022/07/17 02:01:31;;;;;;;2.70;2.50;;;;;;;14.56;55.49;96465.13;5016103;28;20203;-81
2022/07/17 02:03:57;;;;;;;3.35;2.50;;;;;;;14.52;55.92;96466.41;4998865;28;20175;-80
2022/07/17 02:06:22;;;;;;;2.90;2.40;;;;;;;14.52;56.04;96463.78;5015570;28;20562;-80
2022/07/17 02:08:49;;;;;;;2.78;2.58;;;;;;;14.42;56.35;96462.03;5015906;28;20266;-81
2022/07/17 02:11:15;;;;;;;3.67;2.63;;;;;;;14.44;55.92;96457.47;5015624;28;20205;-81
2022/07/17 02:13:40;;;;;;;2.75;2.53;;;;;;;14.40;55.89;96458.75;5031260;28;20183;-81
2022/07/17 02:16:06;;;;;;;2.60;2.40;;;;;;;14.35;56.04;96458.38;5015514;28;20170;-81
2022/07/17 02:18:34;;;;;;;3.00;2.80;;;;;;;14.32;56.22;96456.06;5015099;28;20314;-80
2022/07/17 02:21:00;;;;;;;5.72;2.40;;;;;;;14.29;56.58;96453.72;5033048;28;20276;-80
2022/07/17 02:23:25;;;;;;;4.28;3.15;;;;;;;14.30;56.70;96455.38;5015301;28;20183;-80
2022/07/17 02:25:50;;;;;;;2.72;2.47;;;;;;;14.29;56.35;96450.31;5032431;28;20214;-81
2022/07/17 02:28:15;;;;;;;3.05;2.60;;;;;;;14.29;56.38;96451.13;5015163;28;20228;-80
2022/07/17 02:30:41;;;;;;;5.78;2.90;;;;;;;14.31;56.69;96456.19;5032791;28;20605;-80
2022/07/17 02:33:06;;;;;;;3.00;2.70;;;;;;;14.23;56.60;96443.06;5032819;28;20201;-80
2022/07/17 02:35:32;;;;;;;4.00;2.50;;;;;;;14.20;56.92;96448.56;5031002;28;20182;-81
2022/07/17 02:37:57;;;;;;;3.13;2.67;;;;;;;14.20;56.91;96445.97;5014735;28;20589;-80
2022/07/17 02:40:23;;;;;;;2.60;2.40;;;;;;;14.16;57.10;96441.03;5015163;28;20650;-82
2022/07/17 02:42:48;;;;;;;3.30;2.70;;;;;;;14.19;57.05;96442.53;5014999;28;20206;-80
2022/07/17 02:45:13;;;;;;;3.40;3.10;;;;;;;14.14;57.48;96434.34;5014169;28;20226;-80
2022/07/17 02:47:39;;;;;;;5.10;2.70;;;;;;;14.13;57.49;96432.66;5014696;28;20209;-81
2022/07/17 02:50:07;;;;;;;4.72;3.00;;;;;;;14.13;57.39;96430.91;5031366;28;20195;-80
2022/07/17 02:52:32;;;;;;;5.40;2.55;;;;;;;14.15;57.27;96433.38;5014133;28;20271;-80
2022/07/17 02:54:58;;;;;;;4.90;2.40;;;;;;;14.10;57.07;96428.56;5014288;28;20276;-80
2022/07/17 02:57:23;;;;;;;2.65;2.45;;;;;;;14.07;56.58;96423.66;5014664;28;20262;-81
2022/07/17 02:59:48;;;;;;;3.65;2.55;;;;;;;14.05;56.95;96425.59;5014351;28;20244;-80
2022/07/17 03:02:14;;;;;;;2.72;2.45;;;;;;;14.03;56.92;96427.50;5014471;28;20562;-81
2022/07/17 03:04:39;;;;;;;2.78;2.58;;;;;;;14.02;57.11;96425.06;4997807;28;20175;-80
2022/07/17 03:07:05;;;;;;;2.88;2.58;;;;;;;14.02;57.16;96420.66;5014621;28;20355;-81
2022/07/17 03:09:30;;;;;;;5.78;2.92;;;;;;;14.01;56.70;96413.78;5015064;28;20605;-80
2022/07/17 03:11:55;;;;;;;2.78;2.55;;;;;;;14.03;56.54;96413.63;5014232;28;20685;-80
2022/07/17 03:14:21;;;;;;;2.53;2.03;;;;;;;14.01;56.66;96408.56;5014235;28;20175;-80
2022/07/17 03:16:46;;;;;;;2.60;2.38;;;;;;;14.01;56.83;96410.34;5030946;28;20736;-80
2022/07/17 03:19:11;;;;;;;3.60;2.40;;;;;;;13.98;56.70;96413.28;5014527;28;20179;-79
2022/07/17 03:21:36;;;;;;;3.45;2.45;;;;;;;13.97;56.70;96417.69;5014591;28;20732;-82
2022/07/17 03:24:02;;;;;;;4.55;2.30;;;;;;;13.98;56.60;96408.03;5013813;28;20213;-79
2022/07/17 03:26:27;;;;;;;2.70;2.42;;;;;;;13.95;56.48;96410.94;5014301;28;20228;-81
2022/07/17 03:28:52;;;;;;;4.00;2.60;;;;;;;13.97;56.64;96416.84;5012888;28;20189;-81
2022/07/17 03:31:18;;;;;;;5.40;2.70;;;;;;;13.98;56.56;96415.88;5014512;28;20205;-81
2022/07/17 03:33:43;;;;;;;3.47;2.58;;;;;;;13.98;56.54;96413.28;5014307;28;20665;-79
2022/07/17 03:36:09;;;;;;;6.15;3.00;;;;;;;13.99;56.80;96412.28;5014472;28;20178;-80
2022/07/17 03:38:34;;;;;;;2.78;2.42;;;;;;;13.99;56.37;96410.50;5013139;28;20706;-79
2022/07/17 03:40:59;;;;;;;2.50;2.30;;;;;;;13.96;56.42;96416.03;5014016;28;20252;-80
2022/07/17 03:43:25;;;;;;;2.20;2.00;;;;;;;13.93;56.69;96420.72;5014104;28;20666;-80
2022/07/17 03:45:50;;;;;;;2.70;2.47;;;;;;;13.93;56.96;96415.50;5013574;28;20210;-79
2022/07/17 03:48:16;;;;;;;6.85;3.53;;;;;;;13.95;56.81;96416.97;5014289;28;20210;-80
2022/07/17 03:50:41;;;;;;;2.95;2.65;;;;;;;14.00;56.76;96413.94;5014025;28;20209;-80
2022/07/17 03:53:07;;;;;;;2.57;2.33;;;;;;;14.03;56.73;96418.84;5030319;28;20209;-79
2022/07/17 03:55:32;;;;;;;3.75;2.30;;;;;;;14.09;56.29;96418.28;5013547;28;20175;-80
2022/07/17 03:57:57;;;;;;;3.57;2.70;;;;;;;14.13;56.16;96415.22;4997743;28;20654;-80
2022/07/17 04:00:23;;;;;;;3.20;2.40;;;;;;;14.18;56.03;96417.38;5014100;28;20175;-80
2022/07/17 04:02:49;;;;;;;2.78;2.53;;;;;;;14.27;55.74;96421.72;4997658;28;20296;-80
2022/07/17 04:05:14;;;;;;;4.43;2.70;;;;;;;14.84;54.77;96422.25;5013732;28;20273;-79
2022/07/17 04:07:40;;;;;;;3.00;2.28;;;;;;;16.36;50.94;96418.00;5013754;28;20228;-80
2022/07/17 04:10:07;;;;;;;2.35;2.15;;;;;;;17.86;45.77;96430.59;4997718;28;20210;-80
2022/07/17 04:12:33;;;;;;;2.95;2.75;;;;;;;18.63;43.28;96419.09;5014419;28;20198;-80
2022/07/17 04:14:58;;;;;;;3.50;2.45;;;;;;;19.84;41.23;96433.09;4996710;28;20205;-80
2022/07/17 04:17:25;;;;;;;3.33;2.10;;;;;;;20.91;39.60;96424.31;5014025;28;20253;-81
2022/07/17 04:19:51;;;;;;;2.20;2.00;;;;;;;21.80;37.14;96428.16;4997317;28;20183;-80
2022/07/17 04:22:16;;;;;;;3.15;2.20;;;;;;;20.59;38.31;96427.50;4999328;28;20206;-81
2022/07/17 04:24:42;;;;;;;2.20;2.00;;;;;;;19.94;39.60;96431.00;5017055;28;20589;-80
2022/07/17 04:27:07;;;;;;;2.75;2.20;;;;;;;19.21;41.18;96435.25;5017787;28;20206;-80
2022/07/17 04:29:33;;;;;;;2.67;2.45;;;;;;;18.59;42.98;96435.41;5017528;28;20340;-80
2022/07/17 04:31:58;;;;;;;6.10;2.70;;;;;;;17.95;44.17;96440.91;5001072;28;20206;-80
2022/07/17 04:34:24;;;;;;;4.47;2.55;;;;;;;17.51;45.94;96437.91;5016803;28;20185;-80
2022/07/17 04:36:50;;;;;;;2.65;2.45;;;;;;;18.47;43.93;96442.91;5017701;28;20178;-81
2022/07/17 04:39:15;;;;;;;3.58;2.42;;;;;;;20.18;40.39;96435.94;5035186;28;20202;-81
2022/07/17 04:41:41;;;;;;;3.35;2.65;;;;;;;22.23;36.64;96442.81;5001387;28;20571;-80
2022/07/17 04:44:06;;;;;;;3.10;2.10;;;;;;;24.21;33.34;96439.28;5034369;28;20170;-81
2022/07/17 04:46:31;;;;;;;2.28;2.08;;;;;;;25.35;30.36;96448.97;5033750;28;20738;-81
2022/07/17 04:48:56;;;;;;;3.58;1.85;;;;;;;27.00;28.01;96448.03;5035074;28;20178;-81
2022/07/17 04:51:22;;;;;;;2.33;2.10;;;;;;;26.64;28.40;96436.47;5017341;28;20222;-81
2022/07/17 04:53:47;;;;;;;2.55;2.22;;;;;;;27.14;27.57;96446.84;5016628;28;20313;-81
2022/07/17 04:56:12;;;;;;;2.53;2.15;;;;;;;27.63;26.61;96450.06;5001222;28;20194;-81
2022/07/17 04:58:38;;;;;;;5.75;2.20;;;;;;;27.79;26.74;96449.41;5017156;28;20189;-79
2022/07/17 05:01:03;;;;;;;2.50;2.10;;;;;;;28.35;26.24;96447.09;5016857;28;20202;-80
2022/07/17 05:03:28;;;;;;;1.65;1.55;;;;;;;28.63;24.58;96448.97;5016713;28;20646;-82
2022/07/17 05:05:54;;;;;;;6.43;2.10;;;;;;;29.42;23.71;96452.47;5016849;28;20206;-80
2022/07/17 05:08:19;;;;;;;2.20;1.70;;;;;;;29.96;23.02;96449.22;5017256;28;20186;-80
2022/07/17 05:10:45;;;;;;;4.18;1.88;;;;;;;29.80;24.20;96456.22;5034521;28;20186;-80
2022/07/17 05:13:10;;;;;;;3.10;1.63;;;;;;;30.36;23.44;96463.13;5033501;28;20186;-80
2022/07/17 05:15:35;;;;;;;3.70;1.77;;;;;;;30.62;21.90;96456.16;4999471;28;20194;-81
2022/07/17 05:18:01;;;;;;;2.25;1.73;;;;;;;31.90;20.90;96470.69;5016368;28;20182;-81
2022/07/17 05:20:26;;;;;;;2.22;2.00;;;;;;;30.15;22.29;96455.91;5034741;28;20198;-81
2022/07/17 05:22:51;;;;;;;4.35;1.88;;;;;;;32.37;20.15;96460.72;5016379;28;20337;-81
2022/07/17 05:25:16;;;;;;;4.70;2.00;;;;;;;30.70;21.86;96461.13;5031802;28;20221;-80
2022/07/17 05:27:42;;;;;;;4.07;2.20;;;;;;;30.93;20.92;96465.38;5033173;28;20538;-81
2022/07/17 05:30:07;;;;;;;2.95;2.20;;;;;;;31.71;20.74;96478.31;5033836;28;20219;-81
2022/07/17 05:32:33;;;;;;;3.42;2.28;;;;;;;32.09;20.95;96480.72;5035019;28;20199;-81
2022/07/17 05:34:58;;;;;;;3.03;2.70;;;;;;;30.18;22.32;96469.59;5033464;28;20538;-81
2022/07/17 05:37:23;;;;;;;4.25;2.20;;;;;;;30.52;21.53;96471.34;5017292;28;20243;-81
2022/07/17 05:39:49;;;;;;;3.47;2.10;;;;;;;30.25;22.21;96476.66;5017118;28;20190;-81
2022/07/17 05:42:14;;;;;;;6.20;1.83;;;;;;;32.41;20.10;96480.63;5033549;28;20199;-81
2022/07/17 05:44:39;;;;;;;3.65;2.05;;;;;;;31.98;20.41;96478.25;5034662;28;20179;-81
2022/07/17 05:47:04;;;;;;;2.88;2.00;;;;;;;32.81;19.32;96473.75;5016659;28;20214;-81
2022/07/17 05:49:31;;;;;;;4.32;2.30;;;;;;;30.61;22.23;96475.19;5034170;28;20216;-82
2022/07/17 05:51:56;;;;;;;2.20;1.75;;;;;;;31.99;20.28;96477.19;5016757;28;20203;-82
2022/07/17 05:54:22;;;;;;;1.80;1.70;;;;;;;35.39;16.57;96486.00;5033018;28;20179;-81
2022/07/17 05:56:47;;;;;;;2.05;1.77;;;;;;;32.47;19.27;96483.34;5017228;28;20238;-82
2022/07/17 05:59:12;;;;;;;2.15;1.95;;;;;;;33.29;18.77;96478.91;5032924;28;20182;-81
2022/07/17 06:01:37;;;;;;;2.85;1.90;;;;;;;34.12;17.41;96479.41;5033143;28;20244;-81
2022/07/17 06:04:03;;;;;;;2.20;1.90;;;;;;;32.80;18.75;96480.19;5031914;28;20174;-81
2022/07/17 06:06:28;;;;;;;4.20;1.77;;;;;;;30.77;22.27;96473.53;5033663;28;20682;-81
2022/07/17 06:08:53;;;;;;;3.55;2.05;;;;;;;33.95;17.93;96490.50;5016045;28;20179;-81
2022/07/17 06:11:19;;;;;;;1.90;1.70;;;;;;;35.61;16.01;96489.06;5032113;28;20241;-81
2022/07/17 06:13:44;;;;;;;2.20;2.00;;;;;;;33.36;18.43;96483.00;5031730;28;20209;-81
2022/07/17 06:16:09;;;;;;;2.42;1.90;;;;;;;34.06;17.60;96491.25;5015467;28;20177;-81
2022/07/17 06:18:34;;;;;;;4.32;1.80;;;;;;;32.68;19.30;96485.00;5033005;28;20525;-81
2022/07/17 06:21:00;;;;;;;3.28;2.10;;;;;;;31.58;20.26;96491.13;5015069;28;20185;-81
2022/07/17 06:23:25;;;;;;;2.58;1.90;;;;;;;32.11;20.29;96483.97;5031741;28;20650;-81
2022/07/17 06:25:51;;;;;;;2.78;2.38;;;;;;;33.05;19.38;96490.22;5014397;28;20221;-81
2022/07/17 06:28:16;;;;;;;2.30;1.88;;;;;;;32.30;20.42;96489.72;4999391;28;20170;-81
2022/07/17 06:30:42;;;;;;;2.92;2.55;;;;;;;31.52;21.08;96492.16;5015516;28;20635;-80
2022/07/17 06:33:07;;;;;;;2.22;2.10;;;;;;;30.30;22.72;96495.44;5015004;28;20206;-81
2022/07/17 06:35:33;;;;;;;2.40;2.20;;;;;;;29.33;23.55;96491.34;5015254;28;20177;-82
2022/07/17 06:37:59;;;;;;;2.80;2.10;;;;;;;31.09;22.31;96501.16;5015157;28;20262;-80
2022/07/17 06:40:24;;;;;;;4.32;2.20;;;;;;;31.69;21.12;96505.44;5015444;28;20257;-81
2022/07/17 06:42:49;;;;;;;3.97;2.40;;;;;;;30.31;22.78;96495.22;5015334;28;20578;-81
2022/07/17 06:45:15;;;;;;;2.50;2.30;;;;;;;29.48;23.75;96493.47;5014291;28;20708;-81
2022/07/17 06:47:40;;;;;;;2.15;1.92;;;;;;;31.04;21.53;96497.66;5015503;28;20186;-81
2022/07/17 06:50:06;;;;;;;4.20;2.63;;;;;;;31.10;21.52;96496.59;5015562;28;20182;-79
2022/07/17 06:52:31;;;;;;;3.28;2.20;;;;;;;31.40;21.38;96504.16;5031790;28;20199;-80
2022/07/17 06:54:57;;;;;;;4.80;2.75;;;;;;;31.07;21.56;96500.63;5017734;28;20563;-79
2022/07/17 06:57:22;;;;;;;2.75;2.30;;;;;;;31.47;21.24;96505.56;5031539;28;20177;-80
2022/07/17 06:59:48;;;;;;;3.58;2.10;;;;;;;29.84;23.13;96503.66;5034751;28;20226;-80
2022/07/17 07:02:13;;;;;;;3.50;2.35;;;;;;;29.69;23.75;96499.97;5034494;28;20194;-80
2022/07/17 07:04:38;;;;;;;2.95;2.40;;;;;;;30.28;22.55;96508.31;5034477;28;20182;-81
2022/07/17 07:07:04;;;;;;;3.47;2.40;;;;;;;29.36;23.92;96501.59;5050907;28;20216;-80
2022/07/17 07:09:29;;;;;;;2.30;2.08;;;;;;;30.31;22.67;96511.31;5052453;28;20710;-80
2022/07/17 07:11:54;;;;;;;2.55;2.35;;;;;;;29.73;23.24;96512.63;5029073;28;20220;-80
2022/07/17 07:14:20;;;;;;;3.70;2.38;;;;;;;30.27;23.24;96506.69;5032148;28;20174;-80
2022/07/17 07:16:46;;;;;;;3.65;2.22;;;;;;;31.21;22.08;96526.00;5051254;28;20182;-80
2022/07/17 07:19:11;;;;;;;3.35;2.20;;;;;;;31.14;21.89;96528.06;5034162;28;20189;-81
2022/07/17 07:21:37;;;;;;;4.43;2.47;;;;;;;31.13;21.48;96529.13;5034501;28;20194;-81
2022/07/17 07:24:03;;;;;;;2.50;2.17;;;;;;;31.52;21.65;96531.63;5020726;28;20177;-80
2022/07/17 07:26:29;;;;;;;3.70;2.33;;;;;;;31.06;21.62;96522.34;5036314;28;20685;-80
2022/07/17 07:28:54;;;;;;;5.28;2.10;;;;;;;31.37;21.55;96528.84;5051248;28;20174;-80
2022/07/17 07:31:20;;;;;;;3.17;1.90;;;;;;;30.72;22.03;96520.66;5053655;28;20216;-80
2022/07/17 07:33:45;;;;;;;2.10;1.90;;;;;;;30.37;22.00;96525.56;5051973;28;20202;-79
2022/07/17 07:36:11;;;;;;;3.15;2.00;;;;;;;29.79;21.76;96516.19;5023467;28;20181;-81
2022/07/17 07:38:36;;;;;;;2.58;2.00;;;;;;;30.56;22.01;96513.47;5032548;28;20228;-80
2022/07/17 07:41:02;;;;;;;2.38;2.10;;;;;;;30.45;21.76;96511.72;5017001;28;20300;-80
2022/07/17 07:43:27;;;;;;;3.63;1.90;;;;;;;28.80;23.26;96503.25;5033158;28;20456;-80
2022/07/17 07:45:53;;;;;;;2.42;1.90;;;;;;;28.66;23.86;96504.59;5050314;28;20537;-79
2022/07/17 07:48:18;;;;;;;2.00;1.80;;;;;;;29.96;22.49;96506.25;5034803;28;20178;-80
2022/07/17 07:50:43;;;;;;;4.15;2.15;;;;;;;29.40;23.15;96508.06;5068931;28;20178;-80
2022/07/17 07:53:09;;;;;;;2.58;1.98;;;;;;;29.45;23.09;96502.00;5035562;28;20177;-80
2022/07/17 07:55:34;;;;;;;5.65;2.00;;;;;;;29.54;22.69;96511.25;5053646;28;20170;-80
2022/07/17 07:58:03;;;;;;;2.47;2.08;;;;;;;29.77;22.63;96505.72;5054474;28;20193;-81
2022/07/17 08:00:28;;;;;;;4.28;2.33;;;;;;;29.09;23.06;96517.44;5038255;28;20677;-80
2022/07/17 08:02:54;;;;;;;2.40;2.20;;;;;;;28.30;24.59;96519.13;5055187;28;20193;-81
2022/07/17 08:05:19;;;;;;;5.40;3.22;;;;;;;28.68;24.42;96519.34;5055841;28;20194;-81
2022/07/17 08:07:44;;;;;;;3.22;2.20;;;;;;;28.87;23.72;96519.13;5038208;28;20208;-80
2022/07/17 08:10:10;;;;;;;3.70;2.00;;;;;;;28.74;24.45;96513.03;5058021;28;20181;-81
2022/07/17 08:12:35;;;;;;;5.40;2.00;;;;;;;28.03;25.55;96524.13;5037365;28;20206;-81
2022/07/17 08:15:00;;;;;;;2.50;2.05;;;;;;;27.65;27.15;96528.03;5053106;28;20185;-81
2022/07/17 08:17:26;;;;;;;2.65;2.15;;;;;;;28.05;25.75;96528.19;5036678;28;20224;-80
2022/07/17 08:19:51;;;;;;;3.25;2.15;;;;;;;27.83;26.72;96513.78;5038473;28;20231;-81
2022/07/17 08:22:16;;;;;;;3.25;2.90;;;;;;;26.79;27.88;96519.47;5037957;28;20198;-82
2022/07/17 08:24:41;;;;;;;5.45;4.95;;;;;;;27.95;26.48;96527.94;5021050;28;20217;-78
2022/07/17 08:27:07;;;;;;;8.88;2.70;;;;;;;28.03;26.40;96518.78;5038536;28;20201;-78
2022/07/17 08:29:32;;;;;;;2.40;2.20;;;;;;;27.28;26.38;96525.56;5039521;28;20185;-79
2022/07/17 08:31:57;;;;;;;3.10;2.30;;;;;;;26.90;27.62;96519.75;5057881;28;20213;-78
2022/07/17 08:34:23;;;;;;;2.83;2.45;;;;;;;27.19;27.63;96518.91;5056609;28;20193;-82
2022/07/17 08:36:48;;;;;;;2.95;2.40;;;;;;;26.70;28.01;96515.50;5037636;28;20196;-81
2022/07/17 08:39:14;;;;;;;5.05;2.40;;;;;;;25.51;28.60;96514.09;5037614;28;20655;-82
2022/07/17 08:41:39;;;;;;;6.53;3.85;;;;;;;25.09;29.58;96513.81;5020997;28;20348;-81
2022/07/17 08:44:06;;;;;;;2.72;2.40;;;;;;;24.41;31.26;96510.91;5037479;28;20814;-82
2022/07/17 08:46:33;;;;;;;2.72;2.22;;;;;;;25.25;29.66;96517.78;5037254;28;20217;-81
2022/07/17 08:48:59;;;;;;;5.40;2.53;;;;;;;24.32;30.93;96517.47;5019953;28;20178;-82
2022/07/17 08:51:26;;;;;;;4.63;2.40;;;;;;;23.80;31.71;96527.16;5037871;28;20569;-82
2022/07/17 08:53:52;;;;;;;4.88;2.55;;;;;;;23.91;31.53;96531.03;5071226;28;20188;-81
2022/07/17 08:56:17;;;;;;;4.43;2.38;;;;;;;23.68;31.59;96532.28;5021358;28;20177;-82
2022/07/17 08:58:42;;;;;;;6.18;2.55;;;;;;;23.74;32.00;96525.34;5037664;28;20635;-82
2022/07/17 09:01:07;;;;;;;3.60;2.13;;;;;;;23.91;31.24;96537.13;5037508;28;20263;-81
2022/07/17 09:03:33;;;;;;;3.35;2.42;;;;;;;24.12;31.18;96529.94;5037572;28;20273;-81
2022/07/17 09:05:59;;;;;;;2.42;2.22;;;;;;;23.94;31.04;96531.44;5053703;28;20202;-82
2022/07/17 09:08:25;;;;;;;3.00;2.30;;;;;;;24.36;30.07;96536.44;5036463;28;20615;-81
2022/07/17 09:10:52;;;;;;;3.95;2.47;;;;;;;24.70;29.72;96530.78;5037683;28;20210;-81
2022/07/17 09:13:29;;;;;;;2.08;1.90;;;;;;;25.05;29.03;96527.75;5038080;28;20177;-81
2022/07/17 09:16:13;;;;;;;5.22;2.15;;;;;;;25.26;28.76;96534.53;5070629;28;20166;-81
2022/07/17 09:18:46;;;;;;;2.70;2.17;;;;;;;25.32;28.66;96536.34;5045943;28;20205;-82
2022/07/17 09:21:21;;;;;;;4.88;2.03;;;;;;;25.67;28.49;96526.84;5071044;28;20198;-82
2022/07/17 09:24:04;;;;;;;5.90;2.40;;;;;;;25.29;28.37;96523.50;5030440;28;20176;-82
2022/07/17 09:26:30;;;;;;;1.80;1.70;;;;;;;24.73;28.70;96521.56;5055698;28;20213;-78
2022/07/17 09:28:55;;;;;;;4.45;2.15;;;;;;;24.49;30.33;96534.56;5056784;28;20630;-81
2022/07/17 09:31:28;;;;;;;5.78;2.35;;;;;;;24.70;28.33;96525.44;5020036;28;20198;-81
2022/07/17 09:33:54;;;;;;;2.45;1.85;;;;;;;25.14;27.60;96532.56;5053262;28;20184;-82
2022/07/17 09:36:19;;;;;;;2.63;2.28;;;;;;;24.86;28.02;96534.78;5020557;28;20178;-81
2022/07/17 09:38:46;;;;;;;2.55;1.92;;;;;;;25.06;27.23;96524.84;5036947;28;20181;-82
2022/07/17 09:41:16;;;;;;;4.90;3.30;;;;;;;24.27;29.06;96530.50;5020517;28;20259;-81
2022/07/17 09:43:54;;;;;;;4.38;2.38;;;;;;;24.51;28.98;96521.06;5045215;28;20182;-81
2022/07/17 09:46:21;;;;;;;2.47;1.80;;;;;;;25.00;27.11;96528.38;5053349;28;20266;-80
2022/07/17 09:48:52;;;;;;;2.15;1.95;;;;;;;25.06;27.16;96524.03;5019025;28;20209;-82
2022/07/17 09:51:21;;;;;;;2.42;2.03;;;;;;;25.53;26.41;96530.66;5069444;28;20198;-80
2022/07/17 09:53:48;;;;;;;2.80;2.00;;;;;;;25.19;27.34;96531.94;5035260;28;20178;-80
2022/07/17 09:56:16;;;;;;;2.00;1.90;;;;;;;24.29;28.51;96533.75;5052400;28;20184;-81
2022/07/17 09:58:44;;;;;;;4.60;1.90;;;;;;;25.21;27.35;96531.72;5035980;28;20553;-81
2022/07/17 10:01:10;;;;;;;2.88;1.80;;;;;;;25.13;26.97;96535.44;5030126;28;20690;-81
2022/07/17 10:03:35;;;;;;;2.28;1.88;;;;;;;24.90;27.18;96541.28;5046458;28;20221;-81
2022/07/17 10:06:02;;;;;;;2.72;1.80;;;;;;;25.09;27.69;96534.22;5016153;28;20316;-80
2022/07/17 10:08:27;;;;;;;4.30;2.03;;;;;;;25.75;26.05;96540.94;5032986;28;20182;-81
2022/07/17 10:10:53;;;;;;;3.47;1.77;;;;;;;25.88;27.10;96528.28;5049371;28;20184;-80
2022/07/17 10:13:19;;;;;;;2.35;1.80;;;;;;;26.00;26.02;96514.28;5032578;28;20205;-81
2022/07/17 10:15:44;;;;;;;3.00;2.00;;;;;;;26.14;25.72;96521.88;5032044;28;20261;-81
2022/07/17 10:18:10;;;;;;;1.90;1.80;;;;;;;26.60;25.38;96509.91;5048965;28;20228;-81
2022/07/17 10:20:35;;;;;;;4.95;1.60;;;;;;;26.21;24.43;96513.81;5032340;28;20574;-80
2022/07/17 10:23:12;;;;;;;2.55;1.55;;;;;;;26.53;24.36;96515.31;5032046;28;20201;-80
2022/07/17 10:25:37;;;;;;;2.78;1.42;;;;;;;26.42;24.12;96520.59;5031483;28;20205;-81
2022/07/17 10:28:02;;;;;;;1.50;1.40;;;;;;;26.69;23.91;96511.22;5050659;28;20189;-80
2022/07/17 10:30:29;;;;;;;2.25;1.73;;;;;;;27.02;22.16;96509.94;5033010;28;20182;-79
2022/07/17 10:33:00;;;;;;;2.15;1.90;;;;;;;26.98;23.49;96512.25;5032501;28;20201;-80
2022/07/17 10:35:27;;;;;;;5.20;1.85;;;;;;;27.17;22.31;96513.00;5031983;28;20221;-80
2022/07/17 10:37:53;;;;;;;1.70;1.60;;;;;;;26.96;23.05;96514.34;5033820;28;20586;-79
2022/07/17 10:40:23;;;;;;;3.05;1.52;;;;;;;26.84;22.89;96518.78;5014885;28;20190;-80
2022/07/17 10:42:53;;;;;;;2.75;1.65;;;;;;;26.88;23.31;96513.84;5014898;28;20687;-80
2022/07/17 10:45:27;;;;;;;2.25;1.52;;;;;;;26.89;23.14;96513.59;5030086;28;20186;-80
2022/07/17 10:47:57;;;;;;;1.73;1.63;;;;;;;26.87;21.99;96510.38;5031457;28;20251;-79
2022/07/17 10:50:28;;;;;;;1.98;1.77;;;;;;;26.84;20.41;96510.78;5015857;28;20182;-82
2022/07/17 10:53:09;;;;;;;2.95;1.55;;;;;;;26.84;21.81;96502.81;5034883;28;20194;-82
2022/07/17 10:55:37;;;;;;;3.92;1.70;;;;;;;26.88;22.59;96504.00;5048756;28;20174;-82
2022/07/17 10:58:03;;;;;;;1.58;1.48;;;;;;;26.80;23.34;96501.66;4999256;28;20174;-83
2022/07/17 11:00:29;;;;;;;1.98;1.58;;;;;;;26.95;22.60;96506.56;5032319;28;20179;-83
2022/07/17 11:02:54;;;;;;;2.10;1.40;;;;;;;27.03;22.29;96500.91;5048240;28;20202;-83
2022/07/17 11:05:21;;;;;;;1.63;1.52;;;;;;;26.82;22.34;96512.88;5030527;28;20183;-83
2022/07/17 11:07:58;;;;;;;1.50;1.38;;;;;;;26.91;22.20;96516.84;5047936;28;20642;-84
2022/07/17 11:10:25;;;;;;;2.92;1.50;;;;;;;27.03;20.73;96509.75;5015483;28;20194;-83
2022/07/17 11:12:52;;;;;;;1.42;1.33;;;;;;;27.43;21.62;96519.78;5048298;28;20571;-82
2022/07/17 11:15:17;;;;;;;1.55;1.40;;;;;;;27.12;22.36;96514.72;5031284;28;20638;-82
2022/07/17 11:17:47;;;;;;;3.38;1.92;;;;;;;27.05;22.86;96520.19;5054677;28;20182;-82
2022/07/17 11:20:12;;;;;;;3.92;1.63;;;;;;;27.52;22.04;96517.59;5068611;28;20193;-82
2022/07/17 11:22:38;;;;;;;2.70;1.60;;;;;;;27.43;21.65;96517.13;5035510;28;20661;-82
2022/07/17 11:25:05;;;;;;;2.55;1.75;;;;;;;27.51;21.83;96518.63;5034146;28;20198;-82
2022/07/17 11:27:30;;;;;;;2.20;1.45;;;;;;;27.85;20.82;96511.72;5002697;28;20288;-82
2022/07/17 11:29:58;;;;;;;1.90;1.50;;;;;;;27.05;20.88;96501.53;5018964;28;20276;-82
2022/07/17 11:32:25;;;;;;;3.20;1.42;;;;;;;26.73;21.70;96507.06;5037100;28;20198;-82